createdAt,value
2023-05-22T00:01:06.676Z,22.86
2023-05-22T00:03:37.222Z,22.86
2023-05-22T00:06:06.240Z,22.86
2023-05-22T00:08:34.413Z,22.87
2023-05-22T00:11:02.538Z,22.86
2023-05-22T00:13:30.917Z,22.87
2023-05-22T00:15:58.980Z,22.86
2023-05-22T00:18:27.181Z,22.86
2023-05-22T00:20:58.054Z,22.87
2023-05-22T00:23:27.907Z,22.87
2023-05-22T00:25:55.940Z,22.87
2023-05-22T00:28:24.031Z,22.87
2023-05-22T00:30:53.461Z,22.86
2023-05-22T00:33:21.494Z,22.86
2023-05-22T00:35:49.716Z,22.87
2023-05-22T00:38:33.334Z,22.87
2023-05-22T00:41:01.516Z,22.88
2023-05-22T00:43:29.700Z,22.87
2023-05-22T00:45:57.872Z,22.88
2023-05-22T00:48:27.810Z,22.87
2023-05-22T00:50:56.636Z,22.87
2023-05-22T00:53:26.053Z,22.88
2023-05-22T00:55:55.964Z,22.88
2023-05-22T00:58:24.012Z,22.88
2023-05-22T01:00:52.389Z,22.89
2023-05-22T01:03:27.223Z,22.87
2023-05-22T01:05:55.796Z,22.87
2023-05-22T01:08:23.981Z,22.88
2023-05-22T01:10:56.053Z,22.87
2023-05-22T01:13:28.169Z,22.88
2023-05-22T01:16:00.940Z,22.88
2023-05-22T01:18:31.360Z,22.88
2023-05-22T01:21:04.724Z,22.88
2023-05-22T01:24:02.011Z,22.87
2023-05-22T01:26:56.380Z,22.87
2023-05-22T01:29:36.806Z,22.87
2023-05-22T01:32:06.467Z,22.87
2023-05-22T01:34:36.565Z,22.87
2023-05-22T01:37:04.770Z,22.88
2023-05-22T01:39:32.819Z,22.88
2023-05-22T01:42:00.910Z,22.88
2023-05-22T01:44:29.007Z,22.87
2023-05-22T01:47:00.545Z,22.88
2023-05-22T01:49:30.037Z,22.88
2023-05-22T01:51:59.826Z,22.89
2023-05-22T01:54:34.001Z,22.89
2023-05-22T01:57:04.135Z,22.88
2023-05-22T01:59:34.160Z,22.88
2023-05-22T02:02:05.009Z,22.89
2023-05-22T02:04:36.471Z,22.89
2023-05-22T02:07:04.577Z,22.88
2023-05-22T02:09:32.680Z,22.89
2023-05-22T02:12:00.907Z,22.90
2023-05-22T02:14:30.274Z,22.89
2023-05-22T02:16:58.374Z,22.89
2023-05-22T02:19:28.215Z,22.89
2023-05-22T02:21:58.540Z,22.89
2023-05-22T02:24:26.622Z,22.89
2023-05-22T02:26:54.956Z,22.90
2023-05-22T02:29:23.128Z,22.91
2023-05-22T02:31:51.222Z,22.89
2023-05-22T02:34:19.530Z,22.91
2023-05-22T02:36:48.206Z,22.89
2023-05-22T02:39:19.266Z,22.91
2023-05-22T02:41:47.366Z,22.90
2023-05-22T02:44:15.558Z,22.91
2023-05-22T02:46:44.419Z,22.90
2023-05-22T02:49:12.502Z,22.91
2023-05-22T02:51:40.696Z,22.91
2023-05-22T02:54:08.755Z,22.90
2023-05-22T02:56:38.221Z,22.91
2023-05-22T02:59:06.334Z,22.91
2023-05-22T03:01:34.643Z,22.91
2023-05-22T03:04:02.831Z,22.91
2023-05-22T03:06:32.296Z,22.91
2023-05-22T03:09:00.538Z,22.91
2023-05-22T03:11:28.620Z,22.92
2023-05-22T03:13:58.096Z,22.93
2023-05-22T03:16:26.651Z,22.94
2023-05-22T03:19:08.112Z,22.94
2023-05-22T03:21:36.682Z,22.88
2023-05-22T03:24:05.648Z,22.75
2023-05-22T03:26:34.313Z,22.69
2023-05-22T03:29:06.486Z,22.71
2023-05-22T03:31:34.965Z,22.75
2023-05-22T03:34:08.541Z,22.79
2023-05-22T03:36:38.451Z,22.80
2023-05-22T03:39:06.960Z,22.82
2023-05-22T03:41:40.004Z,22.83
2023-05-22T03:44:10.103Z,22.84
2023-05-22T03:46:38.179Z,22.86
2023-05-22T03:49:07.076Z,22.87
2023-05-22T03:51:35.178Z,22.87
2023-05-22T03:54:03.262Z,22.81
2023-05-22T03:56:31.357Z,22.80
2023-05-22T03:58:59.430Z,22.83
2023-05-22T04:01:29.933Z,22.85
2023-05-22T04:03:57.986Z,22.85
2023-05-22T04:06:26.802Z,22.86
2023-05-22T04:08:54.860Z,22.85
2023-05-22T04:11:22.891Z,22.88
2023-05-22T04:13:51.343Z,22.91
2023-05-22T04:16:19.539Z,22.96
2023-05-22T04:18:48.975Z,22.95
2023-05-22T04:21:17.691Z,22.95
2023-05-22T04:23:47.710Z,22.86
2023-05-22T04:26:15.979Z,22.76
2023-05-22T04:28:46.170Z,22.70
2023-05-22T04:31:14.584Z,22.68
2023-05-22T04:33:44.665Z,22.66
2023-05-22T04:36:14.081Z,22.65
2023-05-22T04:38:44.855Z,22.65
2023-05-22T04:41:13.584Z,22.63
2023-05-22T04:43:41.643Z,22.61
2023-05-22T04:46:09.719Z,22.59
2023-05-22T04:48:40.266Z,22.61
2023-05-22T04:51:08.366Z,22.65
2023-05-22T04:53:38.748Z,22.69
2023-05-22T04:56:07.758Z,22.72
2023-05-22T04:58:37.922Z,22.75
2023-05-22T05:01:07.211Z,22.79
2023-05-22T05:03:36.132Z,22.79
2023-05-22T05:06:04.321Z,22.81
2023-05-22T05:08:32.436Z,22.83
2023-05-22T05:11:01.907Z,22.86
2023-05-22T05:13:29.987Z,22.86
2023-05-22T05:16:00.073Z,22.88
2023-05-22T05:18:28.744Z,22.88
2023-05-22T05:20:57.462Z,22.87
2023-05-22T05:23:25.725Z,22.88
2023-05-22T05:25:54.927Z,22.90
2023-05-22T05:28:24.476Z,22.91
2023-05-22T05:30:52.580Z,22.92
2023-05-22T05:33:50.477Z,22.93
2023-05-22T05:36:31.350Z,22.94
2023-05-22T05:38:59.633Z,22.96
2023-05-22T05:41:27.758Z,22.96
2023-05-22T05:44:04.255Z,22.96
2023-05-22T05:46:34.261Z,22.97
2023-05-22T05:49:10.126Z,22.98
2023-05-22T05:51:39.627Z,22.99
2023-05-22T05:54:08.606Z,22.99
2023-05-22T05:56:37.726Z,23.00
2023-05-22T05:59:07.540Z,23.01
2023-05-22T06:01:38.733Z,23.01
2023-05-22T06:04:11.841Z,23.02
2023-05-22T06:06:40.731Z,23.03
2023-05-22T06:09:09.243Z,23.03
2023-05-22T06:11:51.723Z,23.05
2023-05-22T06:14:21.277Z,23.04
2023-05-22T06:16:49.609Z,23.05
2023-05-22T06:19:18.416Z,23.06
2023-05-22T06:21:46.566Z,23.07
2023-05-22T06:24:14.671Z,23.06
2023-05-22T06:26:43.061Z,23.08
2023-05-22T06:29:11.177Z,23.07
2023-05-22T06:31:40.885Z,23.08
2023-05-22T06:34:10.085Z,23.09
2023-05-22T06:36:38.280Z,23.09
2023-05-22T06:39:07.289Z,23.09
2023-05-22T06:42:04.147Z,23.10
2023-05-22T06:44:52.503Z,23.10
2023-05-22T06:47:23.695Z,23.10
2023-05-22T06:49:51.787Z,23.11
2023-05-22T06:52:19.938Z,23.12
2023-05-22T06:54:48.022Z,23.12
2023-05-22T06:57:16.883Z,23.11
2023-05-22T06:59:46.604Z,23.13
2023-05-22T07:02:39.486Z,23.13
2023-05-22T07:05:13.513Z,23.12
2023-05-22T07:07:56.855Z,23.13
2023-05-22T07:10:27.758Z,23.13
2023-05-22T07:12:56.350Z,23.13
2023-05-22T07:15:24.600Z,23.14
2023-05-22T07:17:56.516Z,23.13
2023-05-22T07:20:25.777Z,23.13
2023-05-22T07:23:04.830Z,23.13
2023-05-22T07:25:32.974Z,23.13
2023-05-22T07:28:02.189Z,23.13
2023-05-22T07:30:31.498Z,23.13
2023-05-22T07:33:01.271Z,23.13
2023-05-22T07:35:29.448Z,23.13
2023-05-22T07:37:57.619Z,23.13
2023-05-22T07:40:26.573Z,23.14
2023-05-22T07:42:55.270Z,23.13
2023-05-22T07:45:23.443Z,23.13
2023-05-22T07:47:54.022Z,23.15
2023-05-22T07:50:26.732Z,23.14
2023-05-22T07:52:55.034Z,23.13
2023-05-22T07:55:23.967Z,23.14
2023-05-22T07:57:53.874Z,23.15
2023-05-22T08:00:30.037Z,23.13
2023-05-22T08:02:58.362Z,23.13
2023-05-22T08:05:27.851Z,23.12
2023-05-22T08:07:55.947Z,23.13
2023-05-22T08:10:23.985Z,23.12
2023-05-22T08:12:52.146Z,23.13
2023-05-22T08:15:20.317Z,23.12
2023-05-22T08:17:48.974Z,23.13
2023-05-22T08:20:17.113Z,23.12
2023-05-22T08:22:46.666Z,23.12
2023-05-22T08:25:14.749Z,23.11
2023-05-22T08:27:42.807Z,23.12
2023-05-22T08:30:11.333Z,23.11
2023-05-22T08:32:39.478Z,23.12
2023-05-22T08:35:08.293Z,23.10
2023-05-22T08:37:37.168Z,23.12
2023-05-22T08:40:08.597Z,23.13
2023-05-22T08:42:37.009Z,23.12
2023-05-22T08:45:07.152Z,23.12
2023-05-22T08:47:36.644Z,23.12
2023-05-22T08:50:05.301Z,23.10
2023-05-22T08:52:35.173Z,23.11
2023-05-22T08:55:05.110Z,23.11
2023-05-22T08:57:34.666Z,23.10
2023-05-22T09:00:02.984Z,23.10
2023-05-22T09:02:31.078Z,23.10
2023-05-22T09:05:02.040Z,23.09
2023-05-22T09:07:30.350Z,23.10
2023-05-22T09:09:58.381Z,23.09
2023-05-22T09:12:26.730Z,23.09
2023-05-22T09:14:56.415Z,23.09
2023-05-22T09:17:24.615Z,23.10
2023-05-22T09:19:52.752Z,23.11
2023-05-22T09:22:22.397Z,23.09
2023-05-22T09:24:52.435Z,23.08
2023-05-22T09:27:20.572Z,23.09
2023-05-22T09:29:49.907Z,23.09
2023-05-22T09:32:19.818Z,23.08
2023-05-22T09:34:48.012Z,23.08
2023-05-22T09:37:16.300Z,23.07
2023-05-22T09:39:45.287Z,23.07
2023-05-22T09:42:15.018Z,23.08
2023-05-22T09:44:44.345Z,23.08
2023-05-22T09:47:12.501Z,23.08
2023-05-22T09:49:43.838Z,23.07
2023-05-22T09:52:13.031Z,23.08
2023-05-22T09:54:44.048Z,23.07
2023-05-22T09:57:12.625Z,23.08
2023-05-22T09:59:40.707Z,23.07
2023-05-22T10:02:08.975Z,23.06
2023-05-22T10:04:37.243Z,23.06
2023-05-22T10:07:06.958Z,23.06
2023-05-22T10:09:35.691Z,23.06
2023-05-22T10:12:05.384Z,23.06
2023-05-22T10:14:33.718Z,23.06
2023-05-22T10:17:03.137Z,23.05
2023-05-22T10:19:33.161Z,23.05
2023-05-22T10:22:01.999Z,23.04
2023-05-22T10:24:31.744Z,23.06
2023-05-22T10:26:59.876Z,23.04
2023-05-22T10:29:32.447Z,23.03
2023-05-22T10:32:02.866Z,23.04
2023-05-22T10:34:41.688Z,23.04
2023-05-22T10:37:20.000Z,23.05
2023-05-22T10:39:55.838Z,23.03
2023-05-22T10:42:23.901Z,23.04
2023-05-22T10:44:51.925Z,23.04
2023-05-22T10:47:19.929Z,23.03
2023-05-22T10:49:49.711Z,23.03
2023-05-22T10:52:21.883Z,23.04
2023-05-22T10:54:53.762Z,23.04
2023-05-22T10:57:22.645Z,23.03
2023-05-22T10:59:50.746Z,23.02
2023-05-22T11:02:22.345Z,23.04
2023-05-22T11:04:50.887Z,23.03
2023-05-22T11:07:20.468Z,23.04
2023-05-22T11:09:48.908Z,23.04
2023-05-22T11:12:25.775Z,23.03
2023-05-22T11:14:55.085Z,23.04
2023-05-22T11:17:24.369Z,23.03
2023-05-22T11:19:59.616Z,23.04
2023-05-22T11:22:34.687Z,23.04
2023-05-22T11:25:05.269Z,23.03
2023-05-22T11:27:34.953Z,23.03
2023-05-22T11:30:03.107Z,23.03
2023-05-22T11:32:31.226Z,23.04
2023-05-22T11:34:59.375Z,23.04
2023-05-22T11:37:27.459Z,23.03
2023-05-22T11:39:57.894Z,23.04
2023-05-22T11:42:26.145Z,23.04
2023-05-22T11:44:55.555Z,23.05
2023-05-22T11:47:23.672Z,23.05
2023-05-22T11:49:52.186Z,23.04
2023-05-22T11:52:20.284Z,23.06
2023-05-22T11:54:48.372Z,23.05
2023-05-22T11:57:16.629Z,23.06
2023-05-22T11:59:46.384Z,23.05
2023-05-22T12:02:16.886Z,23.05
2023-05-22T12:04:45.112Z,23.06
2023-05-22T12:07:13.150Z,23.05
2023-05-22T12:09:41.326Z,23.06
2023-05-22T12:12:11.264Z,23.06
2023-05-22T12:14:39.422Z,23.06
2023-05-22T12:17:07.824Z,23.06
2023-05-22T12:19:37.451Z,23.06
2023-05-22T12:22:05.972Z,23.07
2023-05-22T12:24:39.485Z,23.09
2023-05-22T12:27:09.480Z,23.08
2023-05-22T12:29:37.850Z,23.09
2023-05-22T12:32:06.746Z,23.09
2023-05-22T12:34:35.029Z,23.10
2023-05-22T12:37:04.474Z,23.10
2023-05-22T12:39:32.592Z,23.11
2023-05-22T12:42:00.703Z,23.12
2023-05-22T12:44:28.815Z,23.12
2023-05-22T12:46:56.837Z,23.12
2023-05-22T12:49:24.936Z,23.12
2023-05-22T12:51:52.978Z,23.13
2023-05-22T12:54:22.457Z,23.13
2023-05-22T12:56:50.485Z,23.14
2023-05-22T12:59:20.713Z,23.14
2023-05-22T13:01:49.249Z,23.15
2023-05-22T13:04:17.748Z,23.15
2023-05-22T13:06:45.809Z,23.15
2023-05-22T13:09:16.954Z,23.16
2023-05-22T13:11:46.456Z,23.18
2023-05-22T13:14:14.505Z,23.17
2023-05-22T13:16:42.742Z,23.18
2023-05-22T13:19:10.944Z,23.19
2023-05-22T13:21:39.018Z,23.20
2023-05-22T13:24:07.308Z,23.21
2023-05-22T13:26:35.339Z,23.21
2023-05-22T13:29:04.988Z,23.22
2023-05-22T13:31:37.443Z,23.24
2023-05-22T13:34:05.857Z,23.25
2023-05-22T13:36:34.119Z,23.24
2023-05-22T13:39:02.104Z,23.26
2023-05-22T13:41:30.190Z,23.26
2023-05-22T13:43:58.262Z,23.26
2023-05-22T13:46:27.812Z,23.27
2023-05-22T13:48:55.994Z,23.27
2023-05-22T13:51:24.207Z,23.29
2023-05-22T13:53:52.849Z,23.29
2023-05-22T13:56:20.892Z,23.29
2023-05-22T13:58:48.947Z,23.30
2023-05-22T14:01:17.045Z,23.30
2023-05-22T14:03:46.454Z,23.31
2023-05-22T14:06:14.525Z,23.32
2023-05-22T14:08:42.639Z,23.33
2023-05-22T14:11:10.967Z,23.32
2023-05-22T14:13:38.934Z,23.33
2023-05-22T14:16:07.125Z,23.34
2023-05-22T14:18:35.147Z,23.34
2023-05-22T14:21:05.132Z,23.35
2023-05-22T14:23:33.219Z,23.35
2023-05-22T14:26:01.215Z,23.36
2023-05-22T14:28:29.177Z,23.37
2023-05-22T14:30:57.382Z,23.37
2023-05-22T14:33:25.405Z,23.37
2023-05-22T14:35:53.453Z,23.37
2023-05-22T14:38:22.850Z,23.39
2023-05-22T14:40:51.369Z,23.39
2023-05-22T14:43:19.348Z,23.40
2023-05-22T14:45:47.415Z,23.40
2023-05-22T14:48:15.751Z,23.40
2023-05-22T14:50:43.862Z,23.42
2023-05-22T14:53:11.916Z,23.43
2023-05-22T14:55:41.665Z,23.43
2023-05-22T14:58:10.064Z,23.44
2023-05-22T15:00:38.091Z,23.44
2023-05-22T15:03:06.172Z,23.45
2023-05-22T15:05:34.242Z,23.45
2023-05-22T15:08:02.331Z,23.44
2023-05-22T15:10:30.467Z,23.44
2023-05-22T15:13:00.034Z,23.44
2023-05-22T15:15:28.132Z,23.44
2023-05-22T15:17:56.772Z,23.45
2023-05-22T15:20:24.861Z,23.44
2023-05-22T15:22:53.740Z,23.44
2023-05-22T15:25:21.781Z,23.43
2023-05-22T15:27:49.821Z,23.42
2023-05-22T15:30:21.518Z,23.43
2023-05-22T15:32:50.340Z,23.43
2023-05-22T15:35:18.364Z,23.44
2023-05-22T15:37:46.607Z,23.44
2023-05-22T15:40:17.395Z,23.44
2023-05-22T15:42:45.606Z,23.44
2023-05-22T15:45:13.714Z,23.44
2023-05-22T15:47:43.664Z,23.44
2023-05-22T15:50:11.974Z,23.44
2023-05-22T15:52:40.010Z,23.45
2023-05-22T15:55:08.810Z,23.45
2023-05-22T15:57:36.871Z,23.45
2023-05-22T16:00:06.278Z,23.45
2023-05-22T16:02:34.321Z,23.45
2023-05-22T16:05:03.837Z,23.45
2023-05-22T16:07:31.906Z,23.46
2023-05-22T16:10:00.005Z,23.45
2023-05-22T16:12:28.039Z,23.44
2023-05-22T16:15:00.258Z,23.45
2023-05-22T16:17:30.403Z,23.44
2023-05-22T16:19:58.454Z,23.45
2023-05-22T16:22:40.171Z,23.44
2023-05-22T16:25:16.562Z,23.44
2023-05-22T16:27:44.632Z,23.44
2023-05-22T16:30:14.812Z,23.43
2023-05-22T16:32:42.976Z,23.42
2023-05-22T16:35:11.311Z,23.41
2023-05-22T16:37:41.334Z,23.42
2023-05-22T16:40:10.380Z,23.40
2023-05-22T16:42:38.508Z,23.40
2023-05-22T16:45:07.636Z,23.39
2023-05-22T16:47:35.773Z,23.39
2023-05-22T16:50:04.078Z,23.39
2023-05-22T16:52:32.236Z,23.38
2023-05-22T16:55:01.797Z,23.37
2023-05-22T16:57:29.959Z,23.38
2023-05-22T16:59:58.139Z,23.37
2023-05-22T17:02:26.624Z,23.35
2023-05-22T17:04:54.783Z,23.35
2023-05-22T17:07:23.513Z,23.35
2023-05-22T17:09:51.702Z,23.35
2023-05-22T17:12:21.251Z,23.34
2023-05-22T17:14:49.356Z,23.34
2023-05-22T17:17:17.508Z,23.34
2023-05-22T17:19:46.301Z,23.33
2023-05-22T17:22:14.483Z,23.33
2023-05-22T17:24:42.589Z,23.32
2023-05-22T17:27:11.170Z,23.32
2023-05-22T17:29:40.835Z,23.31
2023-05-22T17:32:09.131Z,23.32
2023-05-22T17:34:37.337Z,23.30
2023-05-22T17:37:05.873Z,23.30
2023-05-22T17:39:34.465Z,23.29
2023-05-22T17:42:02.684Z,23.30
2023-05-22T17:44:31.247Z,23.29
2023-05-22T17:47:01.055Z,23.28
2023-05-22T17:49:29.213Z,23.28
2023-05-22T17:51:57.354Z,23.27
2023-05-22T17:54:25.530Z,23.27
2023-05-22T17:56:55.111Z,23.26
2023-05-22T17:59:23.331Z,23.27
2023-05-22T18:01:51.591Z,23.26
2023-05-22T18:04:21.211Z,23.26
2023-05-22T18:06:49.477Z,23.26
2023-05-22T18:09:17.655Z,23.24
2023-05-22T18:11:45.915Z,23.24
2023-05-22T18:14:14.072Z,23.23
2023-05-22T18:16:42.312Z,23.23
2023-05-22T18:19:10.483Z,23.22
2023-05-22T18:21:40.094Z,23.22
2023-05-22T18:24:08.415Z,23.21
2023-05-22T18:26:36.608Z,23.20
2023-05-22T18:29:04.775Z,23.20
2023-05-22T18:31:34.989Z,23.19
2023-05-22T18:34:03.603Z,23.20
2023-05-22T18:36:32.226Z,23.20
2023-05-22T18:39:01.827Z,23.21
2023-05-22T18:41:30.068Z,23.22
2023-05-22T18:43:58.233Z,23.23
2023-05-22T18:46:28.391Z,23.25
2023-05-22T18:48:56.776Z,23.27
2023-05-22T18:51:25.029Z,23.28
2023-05-22T18:53:53.240Z,23.28
2023-05-22T18:56:22.905Z,23.28
2023-05-22T18:58:51.175Z,23.29
2023-05-22T19:01:19.503Z,23.29
2023-05-22T19:03:47.720Z,23.30
2023-05-22T19:06:16.114Z,23.30
2023-05-22T19:08:44.280Z,23.29
2023-05-22T19:11:12.562Z,23.28
2023-05-22T19:13:42.548Z,23.28
2023-05-22T19:16:10.796Z,23.28
2023-05-22T19:18:39.071Z,23.27
2023-05-22T19:21:07.462Z,23.26
2023-05-22T19:23:36.854Z,23.26
2023-05-22T19:26:05.090Z,23.25
2023-05-22T19:28:33.308Z,23.25
2023-05-22T19:31:03.349Z,23.24
2023-05-22T19:33:32.089Z,23.24
2023-05-22T19:36:00.335Z,23.24
2023-05-22T19:38:28.631Z,23.24
2023-05-22T19:40:56.898Z,23.23
2023-05-22T19:43:25.282Z,23.22
2023-05-22T19:45:54.217Z,23.21
2023-05-22T19:48:23.912Z,23.20
2023-05-22T19:50:52.344Z,23.20
2023-05-22T19:53:20.535Z,23.20
2023-05-22T19:55:48.838Z,23.19
2023-05-22T19:58:17.189Z,23.19
2023-05-22T20:00:47.117Z,23.17
2023-05-22T20:03:15.385Z,23.17
2023-05-22T20:05:45.042Z,23.16
2023-05-22T20:08:14.277Z,23.17
2023-05-22T20:10:42.643Z,23.16
2023-05-22T20:13:10.844Z,23.16
2023-05-22T20:15:40.974Z,23.15
2023-05-22T20:18:10.700Z,23.15
2023-05-22T20:20:38.975Z,23.14
2023-05-22T20:23:08.538Z,23.13
2023-05-22T20:25:37.758Z,23.13
2023-05-22T20:28:06.140Z,23.13
2023-05-22T20:30:34.288Z,23.12
2023-05-22T20:33:02.534Z,23.12
2023-05-22T20:35:31.651Z,23.11
2023-05-22T20:38:03.173Z,23.11
2023-05-22T20:40:33.437Z,23.10
2023-05-22T20:43:02.620Z,23.10
2023-05-22T20:45:30.899Z,23.10
2023-05-22T20:47:59.123Z,23.08
2023-05-22T20:50:27.353Z,23.09
2023-05-22T20:52:55.507Z,23.09
2023-05-22T20:55:25.595Z,23.08
2023-05-22T20:57:55.153Z,23.07
2023-05-22T21:00:24.285Z,23.07
2023-05-22T21:02:52.467Z,23.07
2023-05-22T21:05:20.692Z,23.07
2023-05-22T21:07:48.832Z,23.05
2023-05-22T21:10:17.074Z,23.06
2023-05-22T21:12:45.962Z,23.07
2023-05-22T21:15:15.402Z,23.06
2023-05-22T21:17:43.518Z,23.08
2023-05-22T21:20:12.356Z,23.07
2023-05-22T21:22:40.523Z,23.07
2023-05-22T21:25:10.177Z,23.07
2023-05-22T21:27:38.314Z,23.08
2023-05-22T21:30:07.069Z,23.09
2023-05-22T21:32:36.548Z,23.09
2023-05-22T21:35:04.816Z,23.08
2023-05-22T21:37:32.931Z,23.09
2023-05-22T21:40:01.597Z,23.09
2023-05-22T21:42:44.523Z,23.09
2023-05-22T21:45:13.797Z,23.10
2023-05-22T21:47:43.193Z,23.09
2023-05-22T21:50:11.884Z,23.10
2023-05-22T21:52:39.882Z,23.10
2023-05-22T21:55:08.460Z,23.10
2023-05-22T21:57:37.324Z,23.11
2023-05-22T22:00:05.715Z,23.11
2023-05-22T22:02:33.791Z,23.11
2023-05-22T22:05:03.241Z,23.10
2023-05-22T22:07:31.283Z,23.12
2023-05-22T22:09:59.506Z,23.11
2023-05-22T22:12:27.578Z,23.12
2023-05-22T22:14:55.623Z,23.12
2023-05-22T22:17:24.061Z,23.13
2023-05-22T22:19:53.660Z,23.13
2023-05-22T22:22:23.212Z,23.12
2023-05-22T22:24:51.235Z,23.13
2023-05-22T22:27:19.741Z,23.12
2023-05-22T22:29:47.825Z,23.14
2023-05-22T22:32:15.941Z,23.14
2023-05-22T22:34:45.356Z,23.14
2023-05-22T22:37:13.996Z,23.16
2023-05-22T22:39:43.395Z,23.15
2023-05-22T22:42:11.488Z,23.16
2023-05-22T22:44:39.528Z,23.15
2023-05-22T22:47:07.977Z,23.17
2023-05-22T22:49:37.300Z,23.16
2023-05-22T22:52:05.625Z,23.16
2023-05-22T22:54:33.810Z,23.17
2023-05-22T22:57:03.478Z,23.17
2023-05-22T22:59:31.854Z,23.17
2023-05-22T23:01:59.975Z,23.18
2023-05-22T23:04:28.239Z,23.18
2023-05-22T23:06:57.590Z,23.18
2023-05-22T23:09:25.631Z,23.18
2023-05-22T23:11:53.749Z,23.18
2023-05-22T23:14:24.820Z,23.19
2023-05-22T23:16:52.939Z,23.19
2023-05-22T23:19:21.001Z,23.19
2023-05-22T23:21:49.114Z,23.19
2023-05-22T23:24:17.120Z,23.19
2023-05-22T23:26:45.203Z,23.19
2023-05-22T23:29:13.352Z,23.19
2023-05-22T23:31:43.074Z,23.20
2023-05-22T23:34:11.385Z,23.19
2023-05-22T23:36:39.409Z,23.20
2023-05-22T23:39:07.467Z,23.20
2023-05-22T23:41:35.790Z,23.21
2023-05-22T23:44:03.823Z,23.21
2023-05-22T23:46:31.909Z,23.21
2023-05-22T23:49:01.348Z,23.21
2023-05-22T23:51:29.418Z,23.23
2023-05-22T23:53:57.476Z,23.22
2023-05-22T23:56:26.508Z,23.22
2023-05-22T23:58:54.572Z,23.21
